Terminal Aerodrome Forecast
Issued by NWS

Home | Current Version | Previous Version | Text Only | Print | Product List | Glossary Off
Versions: 1 2 3 4 5 6 7 8 9 10 11 12 13 14

000
FTUS43 KTOP 041120
TAFMHK
TAF
KMHK 041120Z 0412/0512 14005KT P6SM FEW060 BKN150
     FM041900 18009KT 5SM TSRA SCT050CB BKN150
     FM050500 15004KT 4SM TSRA SCT010 BKN030CB=

USA.gov is the U.S. government's official web portal to all federal, state and local government web resources and services.